createdAt,value
2022-11-12T00:00:17.822Z,101136.92
2022-11-12T00:01:40.901Z,101130.89
2022-11-12T00:03:01.747Z,101135.19
2022-11-12T00:04:22.447Z,101136.93
2022-11-12T00:05:45.245Z,101132.64
2022-11-12T00:07:11.134Z,101137.80
2022-11-12T00:08:32.750Z,101136.94
2022-11-12T00:09:53.427Z,101137.77
2022-11-12T00:11:13.980Z,101142.95
2022-11-12T00:12:37.540Z,101149.82
2022-11-12T00:13:58.785Z,101148.11
2022-11-12T00:15:19.871Z,101138.64
2022-11-12T00:16:40.334Z,101139.52
2022-11-12T00:18:01.138Z,101136.92
2022-11-12T00:19:21.451Z,101139.50
2022-11-12T00:20:42.198Z,101142.92
2022-11-12T00:22:02.772Z,101142.92
2022-11-12T00:23:23.289Z,101146.38
2022-11-12T00:24:43.786Z,101148.94
2022-11-12T00:26:04.944Z,101145.48
2022-11-12T00:27:26.047Z,101148.91
2022-11-12T00:28:47.288Z,101153.19
2022-11-12T00:30:12.700Z,101158.34
2022-11-12T00:31:34.197Z,101153.17
2022-11-12T00:32:54.540Z,101153.16
2022-11-12T00:34:15.334Z,101158.30
2022-11-12T00:35:36.153Z,101154.02
2022-11-12T00:36:56.774Z,101156.57
2022-11-12T00:38:16.936Z,101143.69
2022-11-12T00:39:39.464Z,101147.12
2022-11-12T00:41:00.476Z,101155.76
2022-11-12T00:42:20.890Z,101148.02
2022-11-12T00:43:41.441Z,101150.61
2022-11-12T00:45:02.203Z,101157.48
2022-11-12T00:46:22.872Z,101161.81
2022-11-12T00:47:43.414Z,101162.66
2022-11-12T00:49:03.975Z,101161.81
2022-11-12T00:50:27.104Z,101162.66
2022-11-12T00:51:47.972Z,101161.78
2022-11-12T00:53:08.589Z,101165.23
2022-11-12T00:54:29.260Z,101159.22
2022-11-12T00:55:50.471Z,101155.77
2022-11-12T00:57:10.908Z,101159.23
2022-11-12T00:58:34.499Z,101158.37
2022-11-12T00:59:55.068Z,101158.38
2022-11-12T01:01:16.253Z,101149.78
2022-11-12T01:02:42.474Z,101154.08
2022-11-12T01:04:00.219Z,101154.05
2022-11-12T01:05:21.295Z,101148.88
2022-11-12T01:06:42.177Z,101145.47
2022-11-12T01:08:02.976Z,101142.03
2022-11-12T01:09:23.539Z,101147.17
2022-11-12T01:10:43.953Z,101154.04
2022-11-12T01:12:04.734Z,101150.59
2022-11-12T01:13:25.450Z,101150.62
2022-11-12T01:14:46.083Z,101145.45
2022-11-12T01:17:18.731Z,101143.70
2022-11-12T01:18:39.646Z,101154.06
2022-11-12T01:20:00.128Z,101146.34
2022-11-12T01:21:22.984Z,101137.72
2022-11-12T01:22:43.510Z,101145.48
2022-11-12T01:24:04.665Z,101140.33
2022-11-12T01:25:25.136Z,101141.18
2022-11-12T01:26:47.174Z,101144.63
2022-11-12T01:28:07.530Z,101147.20
2022-11-12T01:29:28.023Z,101141.16
2022-11-12T01:30:48.602Z,101139.44
2022-11-12T01:32:09.447Z,101140.27
2022-11-12T01:33:30.057Z,101139.40
2022-11-12T01:34:50.750Z,101141.11
2022-11-12T01:36:14.568Z,101139.37
2022-11-12T01:37:34.997Z,101131.63
2022-11-12T01:38:55.852Z,101139.39
2022-11-12T01:40:17.813Z,101139.40
2022-11-12T01:41:40.386Z,101141.95
2022-11-12T01:43:00.777Z,101139.38
2022-11-12T01:44:24.680Z,101138.48
2022-11-12T01:45:48.155Z,101134.19
2022-11-12T01:47:30.200Z,101141.09
2022-11-12T01:48:56.913Z,101141.91
2022-11-12T01:50:29.798Z,101140.22
2022-11-12T01:51:53.869Z,101137.61
2022-11-12T01:53:14.536Z,101129.89
2022-11-12T01:54:35.708Z,101130.73
2022-11-12T01:55:58.171Z,101134.19
2022-11-12T01:57:22.648Z,101124.75
2022-11-12T01:58:46.029Z,101129.02
2022-11-12T02:00:11.583Z,101127.30
2022-11-12T02:01:32.671Z,101124.71
2022-11-12T02:02:57.471Z,101127.30
2022-11-12T02:04:19.226Z,101122.16
2022-11-12T02:05:41.646Z,101124.71
2022-11-12T02:07:02.955Z,101117.84
2022-11-12T02:08:26.598Z,101126.45
2022-11-12T02:09:47.190Z,101121.30
2022-11-12T02:11:16.714Z,101119.61
2022-11-12T02:12:38.011Z,101128.20
2022-11-12T02:13:58.634Z,101117.85
2022-11-12T02:15:18.908Z,101117.91
2022-11-12T02:16:42.502Z,101113.60
2022-11-12T02:18:04.172Z,101114.45
2022-11-12T02:19:24.641Z,101121.37
2022-11-12T02:20:46.860Z,101130.84
2022-11-12T02:22:06.951Z,101117.92
2022-11-12T02:23:27.425Z,101119.65
2022-11-12T02:24:48.031Z,101125.66
2022-11-12T02:26:09.071Z,101132.56
2022-11-12T02:27:29.791Z,101135.18
2022-11-12T02:28:50.979Z,101134.29
2022-11-12T02:30:12.525Z,101135.17
2022-11-12T02:31:33.148Z,101140.34
2022-11-12T02:32:53.727Z,101140.34
2022-11-12T02:34:14.289Z,101142.89
2022-11-12T02:35:36.489Z,101138.58
2022-11-12T02:36:59.371Z,101147.19
2022-11-12T02:38:19.998Z,101142.89
2022-11-12T02:39:40.250Z,101133.44
2022-11-12T02:41:00.731Z,101135.17
2022-11-12T02:42:20.957Z,101128.27
2022-11-12T02:43:41.461Z,101130.00
2022-11-12T02:45:01.986Z,101125.72
2022-11-12T02:47:52.965Z,101121.44
2022-11-12T02:49:13.913Z,101130.90
2022-11-12T02:50:36.299Z,101126.58
2022-11-12T02:51:56.893Z,101129.16
2022-11-12T02:53:17.299Z,101136.91
2022-11-12T02:54:37.807Z,101133.47
2022-11-12T02:55:59.613Z,101129.16
2022-11-12T02:57:19.966Z,101129.17
2022-11-12T02:58:40.748Z,101140.38
2022-11-12T03:00:03.589Z,101130.04
2022-11-12T03:01:24.125Z,101134.33
2022-11-12T03:02:44.796Z,101129.16
2022-11-12T03:04:05.317Z,101126.59
2022-11-12T03:05:28.376Z,101133.48
2022-11-12T03:06:48.523Z,101123.16
2022-11-12T03:08:09.373Z,101124.89
2022-11-12T03:09:29.786Z,101129.17
2022-11-12T03:10:50.892Z,101134.34
2022-11-12T03:12:11.150Z,101128.28
2022-11-12T03:13:31.437Z,101131.72
2022-11-12T03:14:51.994Z,101129.98
2022-11-12T03:16:13.056Z,101131.70
2022-11-12T03:17:34.198Z,101128.28
2022-11-12T03:18:56.080Z,101133.43
2022-11-12T03:20:17.013Z,101133.43
2022-11-12T03:21:37.790Z,101136.88
2022-11-12T03:23:03.464Z,101125.64
2022-11-12T03:24:24.713Z,101124.72
2022-11-12T03:25:46.242Z,101125.42
2022-11-12T03:27:06.707Z,101118.45
2022-11-12T03:28:28.090Z,101115.84
2022-11-12T03:29:48.735Z,101106.34
2022-11-12T03:31:09.166Z,101112.99
2022-11-12T03:32:29.838Z,101119.10
2022-11-12T03:33:50.922Z,101119.13
2022-11-12T03:35:19.361Z,101117.33
2022-11-12T03:36:40.425Z,101115.66
2022-11-12T03:38:01.682Z,101119.39
2022-11-12T03:39:22.709Z,101122.00
2022-11-12T03:40:43.458Z,101125.52
2022-11-12T03:42:07.512Z,101120.42
2022-11-12T03:43:28.732Z,101125.64
2022-11-12T03:44:49.422Z,101130.84
2022-11-12T03:46:13.278Z,101129.11
2022-11-12T03:47:34.528Z,101135.13
2022-11-12T03:48:55.210Z,101131.73
2022-11-12T03:50:18.982Z,101140.35
2022-11-12T03:51:41.595Z,101133.48
2022-11-12T03:53:03.326Z,101135.19
2022-11-12T03:54:24.607Z,101137.76
2022-11-12T03:55:44.897Z,101139.49
2022-11-12T03:57:09.104Z,101131.77
2022-11-12T03:58:29.793Z,101135.20
2022-11-12T03:59:50.091Z,101128.33
2022-11-12T04:01:10.762Z,101131.75
2022-11-12T04:02:32.462Z,101130.02
2022-11-12T04:03:52.562Z,101130.02
2022-11-12T04:05:15.103Z,101134.31
2022-11-12T04:06:35.574Z,101126.55
2022-11-12T04:08:00.387Z,101125.66
2022-11-12T04:09:21.757Z,101117.90
2022-11-12T04:10:44.132Z,101121.30
2022-11-12T04:12:04.716Z,101117.85
2022-11-12T04:13:25.535Z,101110.94
2022-11-12T04:14:47.065Z,101112.66
2022-11-12T04:16:19.457Z,101115.22
2022-11-12T04:17:42.438Z,101119.45
2022-11-12T04:19:08.782Z,101124.69
2022-11-12T04:20:29.616Z,101121.30
2022-11-12T04:21:57.617Z,101119.59
2022-11-12T04:23:18.046Z,101116.20
2022-11-12T04:24:40.543Z,101106.76
2022-11-12T04:26:00.909Z,101113.63
2022-11-12T04:27:27.293Z,101117.11
2022-11-12T04:28:47.568Z,101114.52
2022-11-12T04:30:09.444Z,101111.09
2022-11-12T04:31:30.426Z,101107.66
2022-11-12T04:32:53.830Z,101113.66
2022-11-12T04:34:14.496Z,101109.34
2022-11-12T04:35:35.320Z,101111.93
2022-11-12T04:36:56.638Z,101117.97
2022-11-12T04:38:19.996Z,101114.52
2022-11-12T04:39:41.366Z,101121.39
2022-11-12T04:41:05.287Z,101114.52
2022-11-12T04:42:28.224Z,101105.90
2022-11-12T04:43:48.864Z,101110.19
2022-11-12T04:45:10.530Z,101097.24
2022-11-12T04:46:30.610Z,101096.45
2022-11-12T04:47:51.337Z,101086.97
2022-11-12T04:49:15.651Z,101080.95
2022-11-12T04:50:37.894Z,101079.21
2022-11-12T04:51:59.313Z,101080.92
2022-11-12T04:53:20.584Z,101084.42
2022-11-12T04:54:40.871Z,101075.85
2022-11-12T04:56:01.358Z,101079.27
2022-11-12T04:57:23.194Z,101095.61
2022-11-12T04:58:45.334Z,101094.77
2022-11-12T05:00:07.466Z,101097.34
2022-11-12T05:01:27.898Z,101093.87
2022-11-12T05:02:51.320Z,101103.31
2022-11-12T05:04:11.577Z,101105.91
2022-11-12T05:05:34.122Z,101108.45
2022-11-12T05:06:58.166Z,101104.16
2022-11-12T05:08:19.579Z,101100.72
2022-11-12T05:09:40.647Z,101097.25
2022-11-12T05:11:00.806Z,101096.36
2022-11-12T05:12:21.523Z,101107.52
2022-11-12T05:13:42.036Z,101112.69
2022-11-12T05:15:03.754Z,101109.27
2022-11-12T05:16:24.245Z,101117.88
2022-11-12T05:17:45.014Z,101112.73
2022-11-12T05:19:07.264Z,101109.30
2022-11-12T05:20:28.120Z,101114.46
2022-11-12T05:21:48.396Z,101110.98
2022-11-12T05:23:08.962Z,101113.55
2022-11-12T05:24:41.711Z,101117.83
2022-11-12T05:25:52.761Z,101120.41
2022-11-12T05:27:16.035Z,101119.55
2022-11-12T05:28:36.575Z,101126.42
2022-11-12T05:29:56.905Z,101129.02
2022-11-12T05:31:17.778Z,101123.87
2022-11-12T05:32:37.962Z,101124.74
2022-11-12T05:33:59.194Z,101130.76
2022-11-12T05:35:19.367Z,101131.63
2022-11-12T05:36:40.027Z,101139.38
2022-11-12T05:38:00.311Z,101134.23
2022-11-12T05:39:20.842Z,101133.37
2022-11-12T05:40:44.052Z,101132.49
2022-11-12T05:42:13.870Z,101136.80
2022-11-12T05:43:27.753Z,101128.16
2022-11-12T05:44:48.591Z,101138.48
2022-11-12T05:46:14.060Z,101135.91
2022-11-12T05:47:41.052Z,101129.88
2022-11-12T05:49:04.951Z,101134.17
2022-11-12T05:50:34.911Z,101138.46
2022-11-12T05:51:54.986Z,101133.30
2022-11-12T05:53:17.871Z,101134.11
2022-11-12T05:54:40.875Z,101134.08
2022-11-12T05:56:04.326Z,101130.61
2022-11-12T05:57:27.098Z,101135.77
2022-11-12T05:58:47.538Z,101125.42
2022-11-12T06:00:10.945Z,101123.62
2022-11-12T06:01:35.376Z,101128.84
2022-11-12T06:02:59.321Z,101129.68
2022-11-12T06:04:20.441Z,101121.09
2022-11-12T06:05:41.053Z,101121.96
2022-11-12T06:07:07.582Z,101124.55
2022-11-12T06:08:34.040Z,101121.09
2022-11-12T06:09:56.359Z,101110.72
2022-11-12T06:11:18.028Z,101110.72
2022-11-12T06:12:38.579Z,101110.72
2022-11-12T06:13:59.550Z,101096.09
2022-11-12T06:15:20.810Z,101103.83
2022-11-12T06:16:42.002Z,101100.42
2022-11-12T06:18:02.933Z,101102.19
2022-11-12T06:19:23.758Z,101107.34
2022-11-12T06:20:44.447Z,101105.57
2022-11-12T06:22:05.761Z,101105.57
2022-11-12T06:23:26.521Z,101122.83
2022-11-12T06:24:47.627Z,101106.47
2022-11-12T06:26:11.598Z,101108.16
2022-11-12T06:27:32.526Z,101113.23
2022-11-12T06:28:53.697Z,101108.07
2022-11-12T06:30:14.679Z,101117.54
2022-11-12T06:31:36.076Z,101108.95
2022-11-12T06:32:57.055Z,101103.78
2022-11-12T10:28:05.019Z,101018.31
2022-11-12T10:31:05.866Z,101020.43
2022-11-12T10:36:33.954Z,101010.34
2022-11-12T10:38:03.713Z,101008.81
2022-11-12T10:39:39.975Z,101017.88
2022-11-12T10:41:08.158Z,101013.50
2022-11-12T10:42:26.626Z,101010.78
2022-11-12T10:44:04.446Z,101008.66
2022-11-12T10:45:26.123Z,101012.03
2022-11-12T10:46:46.767Z,100989.58
2022-11-12T10:48:27.031Z,100992.11
2022-11-12T10:50:05.384Z,100991.69
2022-11-12T10:51:35.435Z,101009.80
2022-11-12T10:53:02.357Z,100988.00
2022-11-12T10:54:31.757Z,100989.77
2022-11-12T10:57:23.244Z,100983.34
2022-11-12T10:58:43.511Z,100992.44
2022-11-12T11:00:13.545Z,100992.59
2022-11-12T11:01:35.937Z,100996.04
2022-11-12T11:02:58.853Z,100993.50
2022-11-12T11:04:28.989Z,100989.94
2022-11-12T11:06:08.498Z,100994.50
2022-11-12T11:07:29.124Z,100990.46
2022-11-12T11:08:52.276Z,100989.06
2022-11-12T11:10:25.628Z,100988.15
2022-11-12T11:11:53.628Z,100988.17
2022-11-12T11:13:23.914Z,100988.75
2022-11-12T11:14:44.298Z,100986.04
2022-11-12T11:16:08.852Z,100990.10
2022-11-12T11:17:29.723Z,100993.35
2022-11-12T11:18:54.162Z,101003.92
2022-11-12T11:20:30.516Z,100996.41
2022-11-12T11:21:54.344Z,100999.70
2022-11-12T11:23:25.190Z,100992.52
2022-11-12T11:25:02.280Z,100987.34
2022-11-12T11:26:47.328Z,100997.55
2022-11-12T11:28:27.156Z,100997.83
2022-11-12T11:29:57.582Z,100997.66
2022-11-12T11:31:30.451Z,100997.28
2022-11-12T11:33:03.443Z,100994.45
2022-11-12T11:36:05.154Z,100987.30
2022-11-12T11:37:28.907Z,100983.31
2022-11-12T11:39:05.137Z,100994.16
2022-11-12T11:40:29.265Z,100980.60
2022-11-12T11:42:11.549Z,100974.09
2022-11-12T11:44:13.788Z,100982.69
2022-11-12T11:45:46.982Z,100981.14
2022-11-12T11:47:44.147Z,100983.41
2022-11-12T11:49:02.669Z,100979.85
2022-11-12T11:52:44.054Z,100978.02
2022-11-12T11:54:33.656Z,100979.32
2022-11-12T11:56:03.578Z,100975.52
2022-11-12T11:57:38.948Z,100974.03
2022-11-12T11:59:09.217Z,100974.45
2022-11-12T12:00:51.674Z,100988.49
2022-11-12T12:02:32.643Z,100987.16
2022-11-12T12:03:59.644Z,100965.92
2022-11-12T12:05:43.301Z,100969.63
2022-11-12T12:07:07.468Z,100971.28
2022-11-12T12:08:37.530Z,100969.29
2022-11-12T12:10:09.342Z,100968.79
2022-11-12T12:11:39.945Z,100964.70
2022-11-12T12:13:04.174Z,100975.67
2022-11-12T12:14:45.292Z,100975.39
2022-11-12T12:16:21.623Z,100963.33
2022-11-12T12:17:48.158Z,100971.20
2022-11-12T12:19:21.998Z,100977.73
2022-11-12T12:21:04.520Z,100968.22
2022-11-12T12:22:38.287Z,100964.06
2022-11-12T12:24:04.677Z,100971.88
2022-11-12T12:25:31.497Z,100953.53
2022-11-12T12:26:55.407Z,100955.25
2022-11-12T12:28:36.337Z,100966.54
2022-11-12T12:30:03.441Z,100961.41
2022-11-12T12:31:31.067Z,100947.66
2022-11-12T12:33:01.125Z,100959.10
2022-11-12T12:34:31.358Z,100940.74
2022-11-12T12:36:02.019Z,100946.61
2022-11-12T12:37:47.480Z,100946.59
2022-11-12T12:39:20.237Z,100944.30
2022-11-12T12:40:49.706Z,100933.77
2022-11-12T12:42:20.415Z,100945.19
2022-11-12T12:43:50.484Z,100960.89
2022-11-12T12:45:21.553Z,100942.77
2022-11-12T12:46:48.279Z,100936.66
2022-11-12T12:48:15.166Z,100934.84
2022-11-12T12:49:37.262Z,100936.66
2022-11-12T12:50:58.030Z,100933.23
2022-11-12T12:52:18.271Z,100956.75
2022-11-12T12:53:38.967Z,100938.52
2022-11-12T12:54:59.425Z,100937.73
2022-11-12T12:56:27.111Z,100947.25
2022-11-12T12:57:48.348Z,100937.61
2022-11-12T12:59:21.759Z,100936.78
2022-11-12T13:00:51.567Z,100945.54
2022-11-12T13:02:21.729Z,100926.42
2022-11-12T13:03:54.825Z,100929.63
2022-11-12T13:05:28.409Z,100935.59
2022-11-12T13:06:55.028Z,100944.49
2022-11-12T13:08:26.567Z,100940.33
2022-11-12T13:09:57.381Z,100930.09
2022-11-12T13:11:42.812Z,100919.67
2022-11-12T13:13:07.316Z,100926.67
2022-11-12T13:14:37.721Z,100923.81
2022-11-12T13:15:59.919Z,100936.07
2022-11-12T13:17:43.720Z,100941.28
2022-11-12T13:19:04.745Z,100944.00
2022-11-12T13:20:35.364Z,100933.66
2022-11-12T13:22:19.684Z,100935.37
2022-11-12T13:25:14.676Z,100926.49
2022-11-12T13:26:47.641Z,100925.91
2022-11-12T13:28:09.607Z,100934.78
2022-11-12T13:29:34.091Z,100917.38
2022-11-12T13:30:57.190Z,100927.02
2022-11-12T13:32:30.177Z,100937.38
2022-11-12T13:33:50.744Z,100932.05
2022-11-12T13:35:18.041Z,100944.89
2022-11-12T13:36:39.774Z,100933.83
2022-11-12T13:38:14.034Z,100924.31
2022-11-12T13:39:35.375Z,100930.41
2022-11-12T13:40:59.475Z,100925.30
2022-11-12T13:42:20.168Z,100928.80
2022-11-12T13:43:46.585Z,100919.20
2022-11-12T13:45:10.074Z,100922.53
2022-11-12T13:46:32.808Z,100920.94
2022-11-12T13:47:54.921Z,100929.64
2022-11-12T13:49:16.974Z,100925.30
2022-11-12T13:50:40.962Z,100928.97
2022-11-12T13:52:03.715Z,100927.09
2022-11-12T13:53:27.323Z,100928.87
2022-11-12T13:54:52.126Z,100927.14
2022-11-12T13:56:25.446Z,100931.34
2022-11-12T13:57:50.548Z,100927.91
2022-11-12T13:59:15.752Z,100918.34
2022-11-12T14:00:37.634Z,100915.83
2022-11-12T14:02:01.861Z,100918.39
2022-11-12T14:03:26.281Z,100913.25
2022-11-12T14:04:46.872Z,100920.22
2022-11-12T14:06:20.765Z,100907.97
2022-11-12T14:08:03.129Z,100922.92
2022-11-12T14:09:27.420Z,100926.48
2022-11-12T14:11:03.706Z,100910.03
2022-11-12T14:12:38.223Z,100923.93
2022-11-12T14:14:19.293Z,100917.02
2022-11-12T14:15:52.113Z,100934.46
2022-11-12T14:17:25.317Z,100932.70
2022-11-12T14:19:13.629Z,100922.29
2022-11-12T14:20:39.342Z,100924.89
2022-11-12T14:22:03.653Z,100919.06
2022-11-12T14:23:26.028Z,100927.66
2022-11-12T14:24:50.593Z,100932.86
2022-11-12T14:26:12.642Z,100932.86
2022-11-12T14:27:35.289Z,100922.55
2022-11-12T14:28:58.474Z,100954.62
2022-11-12T14:30:24.969Z,100926.05
2022-11-12T14:31:46.171Z,100941.66
2022-11-12T14:33:10.955Z,100927.76
2022-11-12T14:34:33.459Z,100941.72
2022-11-12T18:05:59.195Z,100931.11
2022-11-12T18:07:20.874Z,100925.83
2022-11-12T18:08:43.984Z,100933.72
2022-11-12T18:10:05.707Z,100914.64
2022-11-12T18:11:28.624Z,100913.70
2022-11-12T18:12:52.298Z,100909.31
2022-11-12T18:14:12.716Z,100924.41
2022-11-12T18:15:33.089Z,100915.73
2022-11-12T18:16:53.832Z,100914.31
2022-11-12T18:18:14.413Z,100913.03
2022-11-12T18:19:37.460Z,100900.98
2022-11-12T18:20:58.108Z,100909.56
2022-11-12T18:22:18.814Z,100895.13
2022-11-12T18:23:41.237Z,100906.17
2022-11-12T18:25:01.991Z,100894.73
2022-11-12T18:26:22.944Z,100906.96
2022-11-12T18:27:43.551Z,100900.34
2022-11-12T18:29:04.383Z,100891.75
2022-11-12T18:30:25.587Z,100888.14
2022-11-12T18:31:49.628Z,100895.20
2022-11-12T18:33:11.373Z,100885.65
2022-11-12T18:34:32.742Z,100907.75
2022-11-12T18:36:03.677Z,100895.98
2022-11-12T18:37:26.904Z,100889.74
2022-11-12T18:38:50.668Z,100889.17
2022-11-12T18:40:13.462Z,100912.73
2022-11-12T18:41:33.780Z,100910.28
2022-11-12T18:42:55.028Z,100906.94
2022-11-12T18:44:16.841Z,100898.13
2022-11-12T18:45:37.084Z,100901.61
2022-11-12T18:46:57.513Z,100893.95
2022-11-12T18:48:18.498Z,100906.85
2022-11-12T18:49:39.084Z,100907.82
2022-11-12T18:51:06.802Z,100895.77
2022-11-12T18:52:27.953Z,100906.20
2022-11-12T18:53:49.432Z,100914.78
2022-11-12T18:55:12.383Z,100906.99
2022-11-12T18:56:32.573Z,100907.96
2022-11-12T18:57:53.744Z,100908.89
2022-11-12T18:59:18.716Z,100921.88
2022-11-12T19:00:39.350Z,100921.88
2022-11-12T19:01:59.897Z,100914.08
2022-11-12T19:03:20.899Z,100915.75
2022-11-12T19:04:45.631Z,100922.72
2022-11-12T19:06:14.951Z,100913.39
2022-11-12T19:07:33.434Z,100917.66
2022-11-12T19:09:00.422Z,100920.16
2022-11-12T19:10:26.591Z,100931.69
2022-11-12T19:11:46.884Z,100945.48
2022-11-12T19:13:08.435Z,100921.30
2022-11-12T19:14:29.993Z,100932.53
2022-11-12T19:15:50.693Z,100924.05
2022-11-12T19:17:12.291Z,100922.28
2022-11-12T19:18:33.697Z,100937.68
2022-11-12T19:19:54.210Z,100932.53
2022-11-12T19:21:23.242Z,100913.39
2022-11-12T19:22:44.423Z,100915.06
2022-11-12T19:24:05.944Z,100927.30
2022-11-12T19:25:27.144Z,100928.22
2022-11-12T19:26:47.470Z,100926.42
2022-11-12T19:28:07.770Z,100936.84
2022-11-12T19:29:28.687Z,100927.42
2022-11-12T19:30:49.813Z,100929.05
2022-11-12T19:32:11.296Z,100926.38
2022-11-12T19:33:32.858Z,100927.17
2022-11-12T19:34:53.249Z,100916.95
2022-11-12T19:36:19.650Z,100928.35
2022-11-12T19:37:39.696Z,100918.84
2022-11-12T19:39:00.319Z,100922.28
2022-11-12T19:40:20.793Z,100930.03
2022-11-12T19:41:41.855Z,100909.25
2022-11-12T19:43:02.377Z,100911.84
2022-11-12T19:44:22.820Z,100914.36
2022-11-12T19:45:43.336Z,100904.86
2022-11-12T19:47:04.802Z,100919.51
2022-11-12T19:48:26.734Z,100910.05
2022-11-12T19:49:47.731Z,100903.09
2022-11-12T19:51:11.455Z,100908.28
2022-11-12T19:52:31.696Z,100931.69
2022-11-12T19:53:52.381Z,100915.33
2022-11-12T19:55:14.263Z,100887.19
2022-11-12T19:56:34.808Z,100893.63
2022-11-12T19:57:56.346Z,100931.47
2022-11-12T19:59:18.271Z,100896.41
2022-11-12T20:00:39.462Z,100905.73
2022-11-12T20:02:00.807Z,100902.40
2022-11-12T20:03:21.283Z,100891.31
2022-11-12T20:04:42.254Z,100893.67
2022-11-12T20:06:18.062Z,100903.97
2022-11-12T20:07:41.139Z,100897.48
2022-11-12T20:09:05.000Z,100897.84
2022-11-12T20:10:28.016Z,100901.75
2022-11-12T20:11:50.115Z,100901.84
2022-11-12T20:13:11.131Z,100901.37
2022-11-12T20:14:33.167Z,100890.48
2022-11-12T20:15:57.425Z,100886.17
2022-11-12T20:17:18.906Z,100891.00
2022-11-12T20:18:40.548Z,100901.20
2022-11-12T20:20:22.532Z,100899.84
2022-11-12T20:21:45.549Z,100912.10
2022-11-12T20:23:06.169Z,100910.53
2022-11-12T20:24:27.087Z,100897.59
2022-11-12T20:25:47.648Z,100891.70
2022-11-12T20:27:10.393Z,100882.63
2022-11-12T20:28:34.375Z,100893.86
2022-11-12T20:29:54.696Z,100885.19
2022-11-12T20:31:20.036Z,100897.06
2022-11-12T20:32:40.980Z,100891.21
2022-11-12T20:34:01.674Z,100885.33
2022-11-12T20:35:23.631Z,100879.25
2022-11-12T20:36:44.958Z,100881.36
2022-11-12T20:38:05.384Z,100886.66
2022-11-12T20:39:26.186Z,100880.67
2022-11-12T20:40:46.530Z,100897.75
2022-11-12T20:42:07.490Z,100879.89
2022-11-12T20:43:29.343Z,100890.33
2022-11-12T20:44:49.715Z,100886.81
2022-11-12T20:46:14.140Z,100892.84
2022-11-12T20:47:38.325Z,100878.17
2022-11-12T20:49:01.000Z,100878.13
2022-11-12T20:50:22.877Z,100879.84
2022-11-12T20:51:44.353Z,100891.81
2022-11-12T20:53:05.126Z,100886.71
2022-11-12T20:54:25.691Z,100881.47
2022-11-12T20:55:46.806Z,100883.12
2022-11-12T20:57:07.534Z,100877.98
2022-11-12T20:58:29.571Z,100879.70
2022-11-12T20:59:55.802Z,100867.74
2022-11-12T21:01:19.110Z,100876.56
2022-11-12T21:02:41.583Z,100876.56
2022-11-12T21:04:03.353Z,100874.80
2022-11-12T21:05:24.361Z,100871.45
2022-11-12T21:06:45.265Z,100867.20
2022-11-12T21:08:06.280Z,100867.19
2022-11-12T21:09:27.127Z,100861.06
2022-11-12T21:10:49.085Z,100859.48
2022-11-12T21:12:09.796Z,100864.48
2022-11-12T21:13:30.482Z,100869.02
2022-11-12T21:14:52.941Z,100858.62
2022-11-12T21:16:15.077Z,100870.81
2022-11-12T21:17:35.630Z,100863.91
2022-11-12T21:19:02.030Z,100866.41
2022-11-12T21:20:25.648Z,100872.38
2022-11-12T21:21:46.227Z,100859.70
2022-11-12T21:23:07.122Z,100873.52
2022-11-12T21:24:28.664Z,100878.72
2022-11-12T21:25:49.919Z,100876.27
2022-11-12T21:27:10.366Z,100873.33
2022-11-12T21:28:36.448Z,100880.48
2022-11-12T21:30:04.011Z,100877.93
2022-11-12T21:31:28.382Z,100873.87
2022-11-12T21:32:49.231Z,100877.44
2022-11-12T21:34:10.093Z,100876.70
2022-11-12T21:35:30.267Z,100880.33
2022-11-12T21:36:51.315Z,100876.80
2022-11-12T21:38:11.663Z,100890.52
2022-11-12T21:39:33.210Z,100874.85
2022-11-12T21:41:11.509Z,100888.33
2022-11-12T21:42:31.740Z,100876.36
2022-11-12T21:43:52.811Z,100879.50
2022-11-12T21:45:13.361Z,100879.26
2022-11-12T21:46:33.865Z,100873.38
2022-11-12T21:47:54.851Z,100882.00
2022-11-12T21:49:16.006Z,100891.31
2022-11-12T21:50:38.120Z,100877.00
2022-11-12T21:51:58.735Z,100893.72
2022-11-12T21:53:20.511Z,100885.14
2022-11-12T21:54:41.180Z,100870.58
2022-11-12T21:56:08.224Z,100877.73
2022-11-12T21:57:29.091Z,100889.95
2022-11-12T21:58:49.616Z,100890.05
2022-11-12T22:00:40.285Z,100892.98
2022-11-12T22:01:35.478Z,100894.75
2022-11-12T22:02:57.127Z,100887.97
2022-11-12T22:04:18.556Z,100890.23
2022-11-12T22:05:39.198Z,100883.23
2022-11-12T22:06:59.890Z,100908.28
2022-11-12T22:08:20.778Z,100897.06
2022-11-12T22:09:40.817Z,100892.05
2022-11-12T22:11:06.651Z,100899.98
2022-11-12T22:12:27.868Z,100898.41
2022-11-12T22:13:48.490Z,100897.66
2022-11-12T22:15:09.535Z,100899.00
2022-11-12T22:16:29.998Z,100902.63
2022-11-12T22:17:50.465Z,100900.77
2022-11-12T22:19:11.369Z,100913.72
2022-11-12T22:20:32.499Z,100906.38
2022-11-12T22:21:52.969Z,100894.00
2022-11-12T22:23:13.629Z,100908.02
2022-11-12T22:24:33.867Z,100896.78
2022-11-12T22:25:58.340Z,100899.25
2022-11-12T22:27:18.636Z,100904.34
2022-11-12T22:28:39.889Z,100898.37
2022-11-12T22:30:01.367Z,100898.31
2022-11-12T22:31:27.896Z,100902.40
2022-11-12T22:32:48.374Z,100909.64
2022-11-12T22:34:08.878Z,100913.39
2022-11-12T22:35:29.408Z,100900.97
2022-11-12T22:36:49.805Z,100906.25
2022-11-12T22:38:11.094Z,100908.80
2022-11-12T22:39:31.299Z,100904.72
2022-11-12T22:40:52.023Z,100912.46
2022-11-12T22:42:13.081Z,100914.97
2022-11-12T22:43:33.811Z,100912.38
2022-11-12T22:44:54.088Z,100908.09
2022-11-12T22:46:17.801Z,100911.63
2022-11-12T22:47:38.343Z,100910.84
2022-11-12T22:48:59.622Z,100925.76
2022-11-12T22:50:20.251Z,100926.59
2022-11-12T22:51:40.511Z,100945.02
2022-11-12T22:53:00.841Z,100935.69
2022-11-12T22:54:20.938Z,100929.78
2022-11-12T22:55:41.474Z,100936.81
2022-11-12T22:57:02.269Z,100924.79
2022-11-12T22:58:22.739Z,100947.30
2022-11-12T22:59:43.404Z,100930.90
2022-11-12T23:01:05.942Z,100926.50
2022-11-12T23:02:27.325Z,100928.27
2022-11-12T23:03:50.940Z,100923.12
2022-11-12T23:05:12.565Z,100921.52
2022-11-12T23:06:34.460Z,100934.49
2022-11-12T23:07:55.610Z,100940.55
2022-11-12T23:09:17.400Z,100936.17
2022-11-12T23:10:42.952Z,100949.14
2022-11-12T23:12:00.455Z,100921.52
2022-11-12T23:13:23.267Z,100925.80
2022-11-12T23:14:44.056Z,100932.66
2022-11-12T23:16:11.470Z,100938.64
2022-11-12T23:17:31.800Z,100936.89
2022-11-12T23:18:52.840Z,100935.17
2022-11-12T23:20:13.532Z,100934.30
2022-11-12T23:21:34.000Z,100966.34
2022-11-12T23:22:55.166Z,100935.33
2022-11-12T23:24:15.928Z,100940.40
2022-11-12T23:25:36.472Z,100934.49
2022-11-12T23:26:56.989Z,100937.92
2022-11-12T23:28:17.455Z,100937.12
2022-11-12T23:29:38.392Z,100928.42
2022-11-12T23:30:59.495Z,100928.38
2022-11-12T23:32:20.125Z,100923.84